Latest Weather Observations for Point Fawcett

IDD60901

Issued at 7:01 pm CST Friday 22 November 2019 (issued every 10 minutes, with the page automatically refreshed every 10 minutes)

About weather observations | Map of Darwin area stations | Latest observations for Darwin area | Other Formats
Station Details ID: 200731 Name: POINT FAWCETT Lat: -11.76 Lon: 130.03 Height: 6.5 m
Data from the previous 72 hours. | See also: Recent months at Point Fawcett
Date/Time
CST
Temp
°C
App
Temp
°C
Dew
Point
°C
Rel
Hum
%
Delta-T
°C
Wind Press
QNH
hPa
Press
MSL
hPa
Rain since
9am
mm
Dir  Spd
km/h
Gust
km/h
Spd
kts
Gust
kts
22/07:00pm 29.9 32.7 23.6 69 4.4 NW 15 20 8 11 1009.0 - 0.0
22/06:30pm 30.4 33.3 23.8 68 4.6 WNW 15 20 8 11 1008.9 - 0.0
22/06:00pm 31.1 34.5 24.0 66 4.9 W 13 17 7 9 1009.2 1009.1 0.0
22/05:30pm 31.6 34.3 23.4 61 5.7 W 15 20 8 11 1009.2 - 0.0
22/05:00pm 32.3 35.4 24.1 62 5.7 W 15 20 8 11 1009.3 - 0.0
22/04:30pm 32.3 35.0 23.5 59 6.1 W 15 20 8 11 1009.5 - 0.0
22/04:00pm 33.1 35.5 23.7 57 6.5 WNW 17 20 9 11 1009.4 - 0.0
22/03:30pm 33.1 35.3 24.0 59 6.4 WNW 19 24 10 13 1009.4 - 0.0
22/03:00pm 33.7 36.1 23.7 56 7.0 WNW 17 20 9 11 1009.8 1009.7 0.0
22/02:30pm 33.9 36.8 24.5 58 6.6 NW 17 20 9 11 1010.1 - 0.0
22/02:00pm 34.4 37.2 24.3 55 7.1 NW 17 22 9 12 1010.5 - 0.0
22/01:30pm 34.3 37.8 24.2 55 7.1 NNW 13 20 7 11 1010.9 - 0.0
22/01:00pm 34.2 37.5 24.5 57 6.8 NNW 15 22 8 12 1010.9 - 0.0
22/12:30pm 33.9 36.6 24.2 57 6.8 NNW 17 22 9 12 1011.3 - 0.0
22/12:00pm 33.6 36.5 23.9 57 6.8 NNW 15 19 8 10 1011.7 1011.6 0.0
22/11:30am 33.3 36.2 23.9 58 6.6 NNW 15 19 8 10 1012.1 - 0.0
22/11:00am 34.0 37.2 24.3 57 6.8 N 15 20 8 11 1012.0 - 0.0
22/10:30am 33.4 36.4 24.0 58 6.6 N 15 20 8 11 1012.1 - 0.0
22/10:00am 32.9 36.3 24.1 60 6.2 N 13 17 7 9 1012.3 - 0.0
22/09:30am 32.3 35.6 23.8 61 5.9 N 13 17 7 9 1012.2 - 0.0
22/09:00am 31.6 35.1 24.2 65 5.2 N 13 19 7 10 1011.8 1011.7 1.8
22/08:30am 31.4 35.0 24.3 66 5.0 N 13 19 7 10 1011.6 - 1.8
22/08:00am 30.6 33.6 24.0 68 4.6 N 15 19 8 10 1011.4 - 1.8
22/07:30am 29.8 33.4 24.4 73 3.8 N 13 17 7 9 1011.1 - 1.8
22/07:00am 28.8 32.5 24.6 78 2.9 N 13 17 7 9 1010.7 - 1.8
22/06:30am 28.4 32.1 24.6 80 2.6 NNW 13 17 7 9 1010.2 - 1.8
22/06:00am 28.4 32.6 24.8 81 2.5 NNW 11 15 6 8 1009.9 1009.8 1.8
22/05:30am 28.3 32.7 25.1 83 2.2 NNW 11 15 6 8 1009.4 - 1.8
22/05:00am 28.2 32.6 25.0 83 2.2 NW 11 15 6 8 1008.9 - 1.8
22/04:30am 27.2 31.3 24.5 85 1.9 WNW 11 15 6 8 1008.4 - 1.8
22/04:00am 27.0 30.8 24.1 84 2.0 NW 11 13 6 7 1008.3 - 1.8
22/03:30am 27.3 31.7 24.4 84 2.0 NNW 9 13 5 7 1008.1 - 1.8
22/03:00am 28.0 32.1 24.6 82 2.4 NW 11 15 6 8 1008.1 1008.0 1.8
22/02:30am 28.2 31.9 24.6 81 2.5 NW 13 15 7 8 1008.1 - 1.8
22/02:00am 28.2 31.9 24.6 81 2.5 NW 13 15 7 8 1008.2 - 1.8
22/01:30am 28.3 32.1 24.7 81 2.5 NW 13 17 7 9 1008.2 - 1.8
22/01:00am 28.1 32.4 24.9 83 2.2 NNW 11 15 6 8 1008.5 - 1.8
22/12:30am 28.1 32.3 24.7 82 2.4 NNW 11 15 6 8 1008.9 - 1.8
22/12:00am 28.1 31.8 24.5 81 2.5 NW 13 17 7 9 1009.1 1009.0 1.8
 
Date/Time
CST
Temp
°C
App
Temp
°C
Dew
Point
°C
Rel
Hum
%
Delta-T
°C
Wind Press
QNH
hPa
Press
MSL
hPa
Rain since
9am
mm
Dir  Spd
km/h
Gust
km/h
Spd
kts
Gust
kts
21/11:30pm 27.8 31.4 23.8 79 2.8 N 11 17 6 9 1009.5 - 1.8
21/11:00pm 26.6 30.3 23.3 82 2.3 N 9 13 5 7 1009.7 - 1.8
21/10:30pm 25.5 29.5 22.8 85 1.8 N 6 11 3 6 1009.8 - 1.8
21/10:00pm 26.5 30.8 23.6 84 2.0 NNW 7 11 4 6 1009.9 - 1.8
21/09:30pm 26.2 30.2 23.7 86 1.7 NNW 9 13 5 7 1009.8 - 1.8
21/09:00pm 24.2 29.0 22.8 92 0.9 NNW 2 6 1 3 1009.8 1009.7 1.8
21/08:30pm 24.4 28.8 22.8 91 1.1 NNW 4 7 2 4 1009.3 - 1.8
21/08:00pm 24.7 29.5 22.8 89 1.3 N 2 7 1 4 1009.2 - 1.8
21/07:30pm 25.1 30.3 22.8 87 1.6 CALM 0 6 0 3 1009.0 - 1.8
21/07:00pm 25.7 30.7 23.2 86 1.7 W 2 6 1 3 1008.6 - 1.8
21/06:30pm 26.0 29.2 22.3 80 2.5 E 9 15 5 8 1008.4 - 1.8
21/06:00pm 25.9 28.4 21.8 78 2.7 NNE 11 24 6 13 1007.8 1007.7 1.6
21/05:36pm 29.9 28.4 20.2 56 6.4 NE 28 43 15 23 1008.9 - 0.0
21/05:30pm 32.5 36.0 24.8 64 5.4 N 15 20 8 11 1008.7 - 0.0
21/05:00pm 33.0 36.7 24.5 61 6.0 WNW 13 15 7 8 1008.1 - 0.0
21/04:30pm 32.7 36.1 24.7 62 5.6 W 15 20 8 11 1007.6 - 0.0
21/04:00pm 33.2 36.6 24.1 59 6.4 W 13 17 7 9 1007.7 - 0.0
21/03:30pm 33.2 37.0 24.7 61 6.0 W 13 19 7 10 1008.0 - 0.0
21/03:00pm 34.2 38.2 25.0 58 6.5 W 13 17 7 9 1008.2 1008.1 0.0
21/02:30pm 34.4 38.7 25.5 60 6.3 W 13 17 7 9 1008.7 - 0.0
21/02:00pm 34.1 38.7 26.0 62 5.8 W 13 19 7 10 1009.1 - 0.0
21/01:30pm 32.1 35.3 24.9 65 5.1 WNW 17 20 9 11 1009.5 - 0.0
21/01:00pm 33.6 37.5 24.8 60 6.2 NW 13 15 7 8 1009.8 - 0.0
21/12:30pm 32.8 36.4 24.3 61 6.0 NNW 13 17 7 9 1010.3 - 0.0
21/12:00pm 33.3 37.9 25.3 63 5.7 NNW 11 13 6 7 1010.7 1010.6 0.0
21/11:30am 33.9 38.5 25.3 60 6.1 NW 11 15 6 8 1010.8 - 0.0
21/11:00am 33.5 37.8 24.9 60 6.1 NW 11 13 6 7 1011.2 - 0.0
21/10:30am 32.3 36.6 24.3 62 5.6 WNW 9 13 5 7 1011.4 - 0.0
21/10:00am 32.3 37.0 24.9 65 5.2 WNW 9 11 5 6 1011.3 - 0.0
21/09:30am 31.1 35.7 24.2 66 4.8 W 7 11 4 6 1011.2 - 0.0
21/09:00am 30.8 35.1 23.7 66 4.9 WNW 7 9 4 5 1011.4 1011.3 0.0
21/08:30am 31.2 36.1 24.6 68 4.6 WNW 7 11 4 6 1011.1 - 0.0
21/08:00am 30.4 34.7 24.3 70 4.3 W 9 13 5 7 1010.8 - 0.0
21/07:30am 27.9 34.4 25.1 85 2.0 CALM 0 4 0 2 1010.5 - 0.0
21/07:00am 24.8 29.2 23.4 92 1.0 SE 6 7 3 4 1010.0 - 0.0
21/06:30am 23.4 26.9 21.8 91 1.1 SE 6 7 3 4 1009.5 - 0.0
21/06:00am 23.4 26.7 21.8 91 1.1 ESE 7 7 4 4 1009.3 1009.2 0.0
21/05:30am 23.7 27.1 22.0 90 1.1 ESE 7 7 4 4 1009.0 - 0.0
21/05:00am 23.8 27.1 21.9 89 1.3 ESE 7 7 4 4 1008.8 - 0.0
21/04:30am 24.3 27.8 22.2 88 1.4 ESE 7 7 4 4 1008.6 - 0.0
21/04:00am 24.8 28.8 22.1 85 1.8 E 4 7 2 4 1008.3 - 0.0
21/03:30am 25.6 29.8 22.5 83 2.1 N 4 9 2 5 1008.2 - 0.0
21/03:00am 26.7 30.8 23.0 80 2.5 N 6 11 3 6 1008.1 1008.0 0.0
21/02:30am 27.6 31.4 23.4 78 2.9 NNW 9 13 5 7 1008.3 - 0.0
21/02:00am 28.8 32.6 23.5 73 3.6 NW 9 11 5 6 1008.4 - 0.0
21/01:30am 28.9 32.5 23.8 74 3.5 NW 11 13 6 7 1008.7 - 0.0
21/01:00am 29.2 32.8 24.3 75 3.4 NW 13 15 7 8 1008.8 - 0.0
21/12:30am 29.3 32.7 24.0 73 3.7 WNW 13 17 7 9 1009.1 - 0.0
21/12:00am 29.4 32.8 24.0 72 3.7 W 13 17 7 9 1009.4 1009.3 0.0
 
Date/Time
CST
Temp
°C
App
Temp
°C
Dew
Point
°C
Rel
Hum
%
Delta-T
°C
Wind Press
QNH
hPa
Press
MSL
hPa
Rain since
9am
mm
Dir  Spd
km/h
Gust
km/h
Spd
kts
Gust
kts
20/11:30pm 29.6 33.0 24.7 75 3.4 WNW 15 17 8 9 1009.6 - 0.0
20/11:00pm 29.6 32.9 23.8 71 4.0 W 13 17 7 9 1009.7 - 0.0
20/10:30pm 29.7 33.0 23.9 71 4.0 W 13 17 7 9 1009.8 - 0.0
20/10:00pm 29.6 33.1 23.5 69 4.2 W 11 15 6 8 1009.7 - 0.0
20/09:30pm 29.6 32.7 23.5 69 4.2 W 13 17 7 9 1009.5 - 0.0
20/09:00pm 29.7 32.9 24.3 73 3.8 W 15 19 8 10 1009.0 1008.9 0.0
20/08:30pm 29.6 33.1 24.2 73 3.8 W 13 17 7 9 1008.9 - 0.0
20/08:00pm 29.7 33.1 24.1 72 3.9 W 13 19 7 10 1008.7 - 0.0
20/07:30pm 29.4 33.1 23.3 69 4.2 W 9 13 5 7 1008.7 - 0.0
20/07:00pm 29.6 33.2 23.1 68 4.5 W 9 13 5 7 1008.6 - 0.0
20/06:30pm 30.0 33.4 22.7 65 5.0 W 9 13 5 7 1008.3 - 0.0
20/06:00pm 30.6 33.1 21.7 59 6.0 N 11 15 6 8 1008.5 1008.4 0.0
20/05:30pm 32.3 36.2 23.0 58 6.4 NNW 7 9 4 5 1009.0 - 0.0
20/05:00pm 32.4 35.4 23.3 58 6.3 W 13 17 7 9 1008.0 - 0.0
20/04:30pm 32.9 35.8 23.2 56 6.7 W 13 19 7 10 1007.3 - 0.0
20/04:00pm 32.6 35.2 23.3 58 6.4 W 15 20 8 11 1007.5 - 0.0
20/03:30pm 32.7 35.7 23.3 57 6.5 W 13 19 7 10 1007.7 - 0.0
20/03:00pm 33.3 36.4 24.2 59 6.4 W 15 19 8 10 1008.1 1008.0 0.0
20/02:30pm 33.2 36.1 23.2 55 6.9 WNW 13 15 7 8 1008.3 - 0.0
20/02:00pm 34.2 37.5 23.9 55 7.2 NW 13 17 7 9 1008.5 - 0.0
20/01:30pm 33.7 36.2 22.5 52 7.7 NW 13 17 7 9 1008.9 - 0.0
20/01:00pm 33.9 36.7 23.0 53 7.5 NW 13 17 7 9 1009.4 - 0.0
20/12:30pm 33.9 36.7 23.0 53 7.5 NW 13 15 7 8 1009.7 - 0.0
20/12:00pm 33.6 36.5 22.4 52 7.7 NW 11 15 6 8 1010.1 1010.0 0.0
20/11:30am 33.4 36.1 22.2 52 7.7 NNW 11 15 6 8 1010.4 - 0.0
20/11:00am 33.5 36.8 22.6 53 7.5 NNW 9 15 5 8 1010.6 - 0.0
20/10:30am 33.2 36.2 22.0 51 7.6 N 9 13 5 7 1010.8 - 0.0
20/10:00am 32.7 35.7 21.9 53 7.3 N 9 15 5 8 1011.0 - 0.0
20/09:30am 31.9 35.6 23.2 60 6.0 N 9 13 5 7 1011.0 - 0.0
20/09:00am 31.0 35.9 24.6 68 4.5 N 7 11 4 6 1010.9 1010.8 0.8
20/08:30am 30.4 35.8 25.5 75 3.5 NNE 7 9 4 5 1010.7 - 0.8
20/08:00am 29.2 34.8 25.8 82 2.4 NE 7 11 4 6 1010.3 - 0.8
20/07:30am 27.3 34.0 26.6 96 0.5 S 4 6 2 3 1010.1 - 0.8
20/07:00am 24.4 28.9 23.9 97 0.3 S 7 7 4 4 1009.8 - 0.8
20/06:30am 22.9 26.6 22.2 96 0.5 S 6 7 3 4 1009.3 - 0.8
20/06:00am 22.8 26.2 22.0 95 0.5 S 7 7 4 4 1009.1 1009.0 0.8
20/05:30am 22.8 26.2 22.0 95 0.5 S 7 9 4 5 1008.6 - 0.8
20/05:00am 23.0 26.4 22.0 94 0.7 S 7 7 4 4 1008.4 - 0.8
20/04:30am 23.1 26.4 21.9 93 0.8 S 7 9 4 5 1008.2 - 0.8
20/04:00am 23.3 28.0 21.9 92 0.9 CALM 0 0 0 0 1007.9 - 0.8
20/03:30am 23.5 28.3 22.1 92 0.9 CALM 0 0 0 0 1007.9 - 0.8
20/03:00am 23.8 28.6 22.2 91 1.1 CALM 0 0 0 0 1007.9 1007.8 0.8
20/02:30am 24.1 29.0 22.4 90 1.1 CALM 0 0 0 0 1008.1 - 0.8
20/02:00am 24.6 29.6 22.5 88 1.4 CALM 0 0 0 0 1008.2 - 0.8
20/01:30am 25.4 30.5 22.7 85 1.8 CALM 0 0 0 0 1008.5 - 0.8
20/01:00am 27.8 32.2 24.4 82 2.4 W 9 13 5 7 1008.8 - 0.8
20/12:30am 28.5 32.8 24.9 81 2.5 WNW 11 15 6 8 1009.0 - 0.8
20/12:00am 28.6 32.3 24.6 79 2.8 WNW 13 15 7 8 1009.3 1009.2 0.8
 
Date/Time
CST
Temp
°C
App
Temp
°C
Dew
Point
°C
Rel
Hum
%
Delta-T
°C
Wind Press
QNH
hPa
Press
MSL
hPa
Rain since
9am
mm
Dir  Spd
km/h
Gust
km/h
Spd
kts
Gust
kts
19/11:30pm 28.6 32.2 24.4 78 2.9 WNW 13 15 7 8 1009.4 - 0.8
19/11:00pm 28.6 32.3 24.6 79 2.8 NW 13 17 7 9 1009.6 - 0.8
19/10:30pm 28.6 32.2 24.4 78 2.9 WNW 13 15 7 8 1009.7 - 0.8
19/10:00pm 28.6 32.1 24.2 77 3.1 NW 13 15 7 8 1009.9 - 0.8
19/09:30pm 28.2 31.2 24.0 78 2.9 NW 15 17 8 9 1009.9 - 0.8
19/09:00pm 25.4 30.4 22.5 84 2.0 CALM 0 11 0 6 1009.9 1009.8 0.8
19/08:30pm 26.1 29.7 22.4 80 2.5 WNW 7 9 4 5 1009.9 - 0.8
19/08:00pm 27.1 30.4 22.5 76 3.1 WNW 9 11 5 6 1009.6 - 0.8
19/07:30pm 27.0 30.7 23.3 80 2.5 W 9 11 5 6 1009.6 - 0.8

Latest Capital City Observations: Canberra | Sydney | Melbourne | Brisbane | Adelaide | Perth | Hobart | Darwin

Other formats

Comma delimited format used in spreadsheet applications
http://www.bom.gov.au/fwo/IDD60901/IDD60901.94122.axf

JavaScript Object Notation format (JSON) in row-major order
http://www.bom.gov.au/fwo/IDD60901/IDD60901.94122.json

Data quality

Most of these data are generated automatically and are frequently updated. Quality checks on data are not normally performed. It is possible for incorrect values to appear. Refer to information at About Latest Weather Observations and please check the disclaimer before using these data.